LSZA METAR and TAF | Updated Today

LSZA METAR

Lugano Airport

Observation time: 29 min. ago

LSZA 060850Z VRB02KT CAVOK 02/M02 Q1009 NOSIG

Need help? Read our tutorial on how to read METARs or read the parsed version below.

Lugano Airport (LSZA) METAR

  • Weather conditions on Mon, 06 Dec 2021 08:50:00 +0000 (29 min. ago):
  • Present conditions: Dry
  • Clouds: Clear skies
  • Visibility: Greater than 10 km
  • Wind: Variable at 2 knots
  • Temperature: 2 celsius
  • Dew point: -2 celsius
  • Pressure: 1009 millibars
  • Remarks: None


Useful to know...

LSZA TAF

Lugano Airport

TAF LSZA 060825Z 0609/0618 VRB02KT CAVOK
Observation time: 54 min. ago
Need help? Read our tutorial on how to read TAFs or read the parsed version below.

Parsed version of TAF for Lugano Airport (LSZA)

  • From 06 December at 09:00 UTC, to day 06 of the month at 18:00 UTC
  • Visibility: Greater than 10 km
  • Wind: Variable at 2